createdAt,value
2023-03-28T00:02:08.194Z,3.55
2023-03-28T00:04:55.295Z,3.70
2023-03-28T00:07:42.696Z,4.15
2023-03-28T00:10:30.068Z,4.72
2023-03-28T00:13:20.029Z,5.13
2023-03-28T00:16:10.205Z,5.45
2023-03-28T00:21:50.074Z,6.20
2023-03-28T00:24:39.065Z,6.60
2023-03-28T00:27:26.333Z,6.68
2023-03-28T00:30:13.407Z,7.70
2023-03-28T00:33:00.540Z,8.07
2023-03-28T00:35:47.656Z,8.77
2023-03-28T00:38:34.797Z,8.95
2023-03-28T00:41:23.004Z,9.18
2023-03-28T00:44:42.770Z,8.23
2023-03-28T00:47:44.108Z,7.45
2023-03-28T00:50:46.682Z,6.88
2023-03-28T00:53:34.005Z,6.65
2023-03-28T00:56:25.370Z,6.15
2023-03-28T00:59:17.691Z,5.93
2023-03-28T01:02:05.646Z,6.13
2023-03-28T01:05:00.006Z,6.53
2023-03-28T01:07:51.573Z,6.47
2023-03-28T01:10:38.975Z,6.20
2023-03-28T01:13:30.366Z,7.00
2023-03-28T01:16:20.386Z,6.05
2023-03-28T01:19:21.927Z,5.55
2023-03-28T01:22:56.490Z,5.18
2023-03-28T01:26:05.058Z,5.20
2023-03-28T01:29:10.462Z,4.68
2023-03-28T01:32:35.080Z,5.07
2023-03-28T01:35:46.651Z,5.53
2023-03-28T01:38:54.785Z,5.18
2023-03-28T01:42:08.932Z,5.60
2023-03-28T01:45:34.534Z,5.80
2023-03-28T01:48:25.315Z,5.75
2023-03-28T01:51:25.259Z,4.55
2023-03-28T01:54:39.434Z,5.38
2023-03-28T01:57:38.386Z,5.25
2023-03-28T02:00:33.810Z,4.40
2023-03-28T02:03:27.946Z,3.97
2023-03-28T02:06:17.305Z,5.30
2023-03-28T02:09:06.066Z,5.55
2023-03-28T02:12:19.390Z,7.18
2023-03-28T02:15:10.663Z,7.47
2023-03-28T02:18:07.053Z,8.20
2023-03-28T02:21:01.054Z,8.30
2023-03-28T02:23:54.168Z,7.22
2023-03-28T02:26:41.728Z,6.90
2023-03-28T02:29:30.765Z,5.45
2023-03-28T02:32:21.847Z,4.60
2023-03-28T02:35:09.243Z,3.58
2023-03-28T02:38:16.823Z,2.95
2023-03-28T02:41:37.055Z,2.90
2023-03-28T02:47:24.247Z,2.42
2023-03-28T02:50:17.386Z,1.80
2023-03-28T02:53:14.652Z,1.60
2023-03-28T02:56:32.111Z,1.40
2023-03-28T02:59:27.725Z,1.35
2023-03-28T03:02:21.599Z,1.52
2023-03-28T03:05:09.855Z,1.20
2023-03-28T03:07:56.987Z,1.10
2023-03-28T03:10:44.052Z,1.40
2023-03-28T03:13:31.501Z,1.17
2023-03-28T03:16:18.638Z,1.27
2023-03-28T03:19:05.894Z,1.30
2023-03-28T03:21:54.310Z,1.30
2023-03-28T03:24:41.371Z,1.23
2023-03-28T03:27:28.410Z,1.42
2023-03-28T03:30:15.550Z,1.30
2023-03-28T03:33:02.802Z,1.40
2023-03-28T03:35:50.187Z,1.40
2023-03-28T03:38:37.276Z,1.40
2023-03-28T03:41:24.377Z,1.50
2023-03-28T03:44:11.428Z,1.40
2023-03-28T03:46:58.718Z,1.55
2023-03-28T03:49:46.017Z,1.40
2023-03-28T03:52:33.071Z,1.58
2023-03-28T03:55:20.955Z,1.50
2023-03-28T03:58:08.096Z,1.50
2023-03-28T04:00:55.877Z,1.70
2023-03-28T04:03:43.434Z,1.70
2023-03-28T04:06:30.568Z,1.60
2023-03-28T04:09:17.683Z,2.10
2023-03-28T04:12:08.436Z,2.10
2023-03-28T04:14:55.502Z,2.10
2023-03-28T04:17:44.485Z,2.00
2023-03-28T04:20:31.889Z,1.92
2023-03-28T04:23:20.500Z,1.92
2023-03-28T04:26:08.906Z,2.10
2023-03-28T04:28:57.330Z,2.22
2023-03-28T04:31:51.720Z,2.17
2023-03-28T04:34:39.271Z,1.98
2023-03-28T04:37:27.844Z,2.50
2023-03-28T04:40:16.309Z,2.45
2023-03-28T04:43:03.412Z,2.17
2023-03-28T04:45:50.619Z,2.35
2023-03-28T04:48:37.836Z,2.40
2023-03-28T04:51:25.307Z,2.70
2023-03-28T04:54:12.400Z,2.30
2023-03-28T04:56:59.523Z,2.78
2023-03-28T04:59:46.615Z,2.20
2023-03-28T05:02:33.699Z,2.72
2023-03-28T05:05:21.069Z,2.33
2023-03-28T05:08:08.531Z,2.22
2023-03-28T05:10:56.128Z,2.47
2023-03-28T05:13:43.222Z,2.20
2023-03-28T05:16:30.662Z,2.40
2023-03-28T05:19:18.276Z,2.38
2023-03-28T05:22:05.357Z,2.88
2023-03-28T05:24:52.448Z,2.22
2023-03-28T05:27:39.533Z,2.47
2023-03-28T05:30:26.816Z,3.28
2023-03-28T05:33:14.064Z,3.20
2023-03-28T05:36:02.160Z,2.45
2023-03-28T05:38:49.868Z,2.70
2023-03-28T05:41:36.932Z,2.78
2023-03-28T05:44:24.071Z,3.58
2023-03-28T05:47:11.186Z,2.80
2023-03-28T05:49:58.500Z,3.10
2023-03-28T05:52:45.536Z,2.88
2023-03-28T05:55:33.805Z,3.35
2023-03-28T05:58:22.563Z,3.30
2023-03-28T06:01:10.136Z,3.35
2023-03-28T06:03:58.562Z,3.40
2023-03-28T06:06:45.835Z,2.95
2023-03-28T06:09:34.982Z,2.92
2023-03-28T06:12:22.073Z,3.03
2023-03-28T06:15:10.086Z,2.88
2023-03-28T06:17:58.236Z,2.88
2023-03-28T06:20:45.630Z,2.85
2023-03-28T06:23:32.800Z,3.20
2023-03-28T06:26:19.951Z,2.78
2023-03-28T06:29:07.256Z,2.75
2023-03-28T06:31:54.578Z,2.55
2023-03-28T06:34:41.753Z,3.30
2023-03-28T06:37:28.812Z,2.92
2023-03-28T06:40:16.207Z,2.72
2023-03-28T06:43:03.318Z,2.78
2023-03-28T06:45:50.487Z,4.78
2023-03-28T06:48:37.817Z,2.75
2023-03-28T06:51:25.489Z,2.80
2023-03-28T06:54:12.548Z,4.25
2023-03-28T06:56:59.731Z,2.72
2023-03-28T06:59:46.825Z,3.22
2023-03-28T07:02:34.217Z,3.85
2023-03-28T07:05:21.309Z,3.55
2023-03-28T07:08:10.373Z,3.20
2023-03-28T07:10:57.558Z,4.28
2023-03-28T07:13:44.879Z,3.95
2023-03-28T07:16:32.089Z,3.35
2023-03-28T07:19:19.316Z,3.65
2023-03-28T07:22:06.440Z,3.30
2023-03-28T07:24:53.757Z,3.20
2023-03-28T07:27:41.558Z,3.10
2023-03-28T07:30:28.692Z,4.03
2023-03-28T07:33:21.509Z,3.28
2023-03-28T07:36:16.731Z,2.95
2023-03-28T07:39:05.138Z,2.72
2023-03-28T07:41:52.201Z,3.55
2023-03-28T07:44:41.810Z,3.97
2023-03-28T07:50:17.926Z,7.07
2023-03-28T07:53:04.983Z,3.10
2023-03-28T07:55:55.696Z,3.20
2023-03-28T07:58:43.405Z,3.10
2023-03-28T08:01:30.437Z,2.40
2023-03-28T08:04:17.937Z,2.30
2023-03-28T08:07:07.764Z,2.42
2023-03-28T08:09:57.078Z,2.53
2023-03-28T08:12:46.173Z,1.95
2023-03-28T08:15:33.308Z,2.20
2023-03-28T08:18:24.581Z,2.63
2023-03-28T08:21:11.707Z,2.50
2023-03-28T08:23:59.216Z,2.10
2023-03-28T08:26:48.604Z,1.50
2023-03-28T08:29:36.044Z,1.77
2023-03-28T08:32:23.213Z,1.80
2023-03-28T08:35:10.930Z,1.58
2023-03-28T08:37:58.158Z,1.50
2023-03-28T08:40:56.812Z,1.45
2023-03-28T08:43:58.978Z,1.70
2023-03-28T08:46:50.397Z,1.60
2023-03-28T08:49:48.627Z,1.83
2023-03-28T08:52:39.767Z,1.98
2023-03-28T08:55:38.663Z,1.70
2023-03-28T08:58:31.744Z,1.55
2023-03-28T09:01:22.363Z,1.80
2023-03-28T09:04:22.461Z,2.08
2023-03-28T09:10:34.874Z,2.42
2023-03-28T09:13:27.861Z,1.38
2023-03-28T09:16:33.263Z,1.60
2023-03-28T09:19:37.069Z,1.70
2023-03-28T09:22:52.982Z,1.42
2023-03-28T09:25:57.894Z,1.58
2023-03-28T09:29:02.149Z,1.85
2023-03-28T09:31:51.440Z,1.60
2023-03-28T09:34:45.050Z,1.60
2023-03-28T09:37:41.066Z,2.30
2023-03-28T09:40:33.590Z,1.88
2023-03-28T09:43:46.200Z,1.95
2023-03-28T09:46:47.072Z,2.05
2023-03-28T09:49:34.481Z,2.70
2023-03-28T09:52:22.166Z,2.00
2023-03-28T09:55:18.078Z,2.17
2023-03-28T09:58:11.484Z,2.30
2023-03-28T10:00:58.788Z,2.00
2023-03-28T10:03:54.373Z,2.28
2023-03-28T10:06:43.078Z,2.65
2023-03-28T10:09:30.179Z,2.15
2023-03-28T10:12:32.135Z,2.05
2023-03-28T10:15:45.457Z,2.35
2023-03-28T10:18:33.125Z,1.80
2023-03-28T10:21:26.615Z,1.75
2023-03-28T10:24:17.394Z,1.85
2023-03-28T10:27:14.897Z,1.67
2023-03-28T10:30:25.538Z,1.60
2023-03-28T10:33:18.526Z,1.77
2023-03-28T10:36:09.852Z,2.00
2023-03-28T10:38:57.635Z,1.95
2023-03-28T10:41:58.149Z,2.03
2023-03-28T10:44:59.019Z,2.00
2023-03-28T10:47:47.193Z,2.03
2023-03-28T10:50:43.774Z,1.80
2023-03-28T10:54:00.361Z,1.55
2023-03-28T10:56:53.487Z,2.03
2023-03-28T11:00:02.100Z,1.85
2023-03-28T11:03:26.488Z,2.13
2023-03-28T11:06:16.582Z,1.88
2023-03-28T11:09:31.853Z,2.40
2023-03-28T11:12:51.259Z,2.40
2023-03-28T11:15:47.190Z,2.30
2023-03-28T11:18:37.221Z,2.25
2023-03-28T11:22:04.545Z,2.10
2023-03-28T11:25:19.390Z,2.00
2023-03-28T11:28:18.516Z,2.55
2023-03-28T11:31:06.102Z,1.10
2023-03-28T11:34:06.541Z,1.50
2023-03-28T11:37:01.017Z,1.58
2023-03-28T11:39:56.003Z,2.13
2023-03-28T11:43:10.094Z,1.98
2023-03-28T11:46:13.996Z,3.15
2023-03-28T11:49:12.506Z,1.77
2023-03-28T11:52:11.409Z,2.00
2023-03-28T11:55:21.540Z,1.80
2023-03-28T11:58:30.046Z,1.88
2023-03-28T12:01:29.070Z,2.03
2023-03-28T12:04:39.391Z,1.00
2023-03-28T12:07:36.078Z,1.05
2023-03-28T12:10:26.390Z,0.90
2023-03-28T12:13:21.051Z,1.25
2023-03-28T12:16:13.024Z,1.83
2023-03-28T12:19:03.549Z,1.00
2023-03-28T12:21:59.662Z,1.30
2023-03-28T12:24:57.311Z,1.35
2023-03-28T12:27:45.425Z,1.50
2023-03-28T12:30:45.579Z,1.52
2023-03-28T12:33:43.616Z,1.98
2023-03-28T12:36:39.480Z,1.73
2023-03-28T12:40:20.065Z,1.40
2023-03-28T12:43:09.105Z,1.50
2023-03-28T12:46:01.085Z,1.75
2023-03-28T12:49:22.480Z,1.60
2023-03-28T12:52:19.332Z,1.80
2023-03-28T12:55:26.642Z,1.85
2023-03-28T12:58:36.043Z,1.63
2023-03-28T13:01:33.836Z,1.90
2023-03-28T13:04:58.902Z,1.70
2023-03-28T13:07:58.343Z,1.85
2023-03-28T13:11:07.875Z,1.35
2023-03-28T13:14:19.504Z,0.90
2023-03-28T13:17:23.777Z,0.90
2023-03-28T13:20:16.895Z,1.00
2023-03-28T13:23:08.088Z,0.88
2023-03-28T13:25:57.529Z,0.70
2023-03-28T13:28:51.750Z,0.90
2023-03-28T13:31:43.719Z,1.17
2023-03-28T13:34:34.002Z,0.82
2023-03-28T13:37:24.009Z,0.80
2023-03-28T13:43:41.885Z,0.60
2023-03-28T13:46:43.888Z,0.52
2023-03-28T13:49:31.068Z,0.50
2023-03-28T13:52:22.013Z,1.02
2023-03-28T13:55:22.651Z,0.60
2023-03-28T13:58:13.500Z,0.52
2023-03-28T14:01:16.792Z,0.70
2023-03-28T14:04:16.052Z,0.77
2023-03-28T14:07:03.190Z,0.57
2023-03-28T14:09:51.280Z,0.65
2023-03-28T14:12:38.464Z,0.60
2023-03-28T14:15:30.237Z,1.38
2023-03-28T14:18:24.865Z,1.25
2023-03-28T14:21:12.254Z,1.27
2023-03-28T14:24:02.211Z,1.20
2023-03-28T14:26:50.510Z,1.13
2023-03-28T14:29:52.071Z,1.15
2023-03-28T14:32:54.510Z,1.20
2023-03-28T14:35:57.477Z,1.00
2023-03-28T14:38:44.629Z,1.10
2023-03-28T14:41:35.980Z,1.27
2023-03-28T14:44:23.766Z,1.60
2023-03-28T14:47:32.500Z,1.50
2023-03-28T14:50:21.958Z,1.20
2023-03-28T14:53:22.515Z,1.20
2023-03-28T14:56:14.244Z,1.45
2023-03-28T14:59:04.061Z,1.17
2023-03-28T15:01:52.536Z,1.20
2023-03-28T15:04:39.796Z,1.30
2023-03-28T15:07:28.559Z,1.30
2023-03-28T15:10:19.751Z,1.20
2023-03-28T15:13:18.359Z,1.50
2023-03-28T15:16:08.386Z,1.17
2023-03-28T15:22:09.929Z,1.48
2023-03-28T15:24:58.282Z,1.88
2023-03-28T15:27:51.699Z,1.90
2023-03-28T15:30:44.366Z,1.20
2023-03-28T15:33:46.388Z,0.77
2023-03-28T15:36:34.850Z,0.80
2023-03-28T15:39:28.161Z,0.88
2023-03-28T15:42:21.748Z,0.90
2023-03-28T15:45:22.837Z,0.80
2023-03-28T15:48:16.526Z,1.10
2023-03-28T15:51:07.025Z,1.10
2023-03-28T15:53:55.488Z,1.00
2023-03-28T15:56:48.023Z,0.70
2023-03-28T15:59:42.414Z,1.00
2023-03-28T16:02:33.462Z,0.70
2023-03-28T16:05:34.922Z,1.30
2023-03-28T16:08:34.951Z,1.23
2023-03-28T16:11:24.171Z,0.98
2023-03-28T16:14:18.277Z,1.35
2023-03-28T16:17:10.486Z,0.93
2023-03-28T16:19:59.240Z,1.10
2023-03-28T16:22:46.902Z,1.40
2023-03-28T16:25:34.434Z,0.98
2023-03-28T16:28:21.555Z,0.90
2023-03-28T16:31:13.562Z,0.73
2023-03-28T16:34:00.779Z,1.10
2023-03-28T16:36:47.812Z,1.10
2023-03-28T16:39:36.263Z,1.48
2023-03-28T16:42:24.806Z,0.90
2023-03-28T16:45:13.892Z,0.85
2023-03-28T16:48:08.274Z,1.10
2023-03-28T16:50:56.391Z,1.50
2023-03-28T16:53:44.704Z,1.45
2023-03-28T16:56:32.675Z,0.77
2023-03-28T16:59:21.003Z,0.95
2023-03-28T17:02:09.834Z,0.98
2023-03-28T17:04:57.360Z,1.40
2023-03-28T17:07:44.951Z,0.95
2023-03-28T17:10:32.328Z,0.80
2023-03-28T17:13:19.779Z,0.68
2023-03-28T17:16:08.729Z,0.90
2023-03-28T17:18:57.176Z,1.23
2023-03-28T17:21:44.828Z,0.88
2023-03-28T17:24:32.724Z,1.00
2023-03-28T17:27:22.516Z,0.90
2023-03-28T17:30:13.346Z,0.90
2023-03-28T17:33:05.393Z,0.75
2023-03-28T17:35:53.656Z,0.73
2023-03-28T17:38:41.621Z,0.95
2023-03-28T17:41:30.315Z,0.80
2023-03-28T17:44:18.732Z,0.70
2023-03-28T17:47:07.272Z,0.50
2023-03-28T17:49:58.044Z,1.00
2023-03-28T17:52:46.961Z,0.80
2023-03-28T17:55:36.495Z,0.95
2023-03-28T17:58:26.339Z,1.27
2023-03-28T18:01:19.879Z,1.00
2023-03-28T18:04:08.751Z,0.55
2023-03-28T18:06:58.577Z,0.98
2023-03-28T18:09:47.231Z,0.95
2023-03-28T18:12:36.317Z,1.25
2023-03-28T18:15:25.346Z,1.00
2023-03-28T18:18:13.448Z,0.93
2023-03-28T18:21:03.798Z,1.25
2023-03-28T18:23:52.268Z,1.20
2023-03-28T18:26:40.762Z,0.95
2023-03-28T18:29:32.041Z,1.05
2023-03-28T18:32:22.968Z,1.00
2023-03-28T18:35:13.457Z,1.02
2023-03-28T18:38:02.610Z,0.90
2023-03-28T18:40:54.416Z,0.80
2023-03-28T18:43:44.517Z,1.00
2023-03-28T18:46:34.773Z,1.27
2023-03-28T18:49:26.906Z,1.17
2023-03-28T18:52:17.858Z,1.40
2023-03-28T18:55:11.151Z,1.85
2023-03-28T18:58:00.465Z,1.10
2023-03-28T19:00:55.427Z,2.63
2023-03-28T19:03:46.237Z,1.30
2023-03-28T19:06:38.501Z,1.35
2023-03-28T19:09:28.021Z,1.00
2023-03-28T19:12:17.638Z,1.10
2023-03-28T19:15:11.662Z,1.00
2023-03-28T19:18:02.266Z,1.02
2023-03-28T19:20:55.571Z,1.77
2023-03-28T19:23:44.060Z,1.25
2023-03-28T19:26:32.588Z,1.10
2023-03-28T19:29:22.789Z,1.23
2023-03-28T19:34:58.268Z,1.08
2023-03-28T19:37:47.509Z,1.10
2023-03-28T19:40:35.627Z,1.20
2023-03-28T19:43:24.631Z,1.10
2023-03-28T19:46:19.080Z,1.02
2023-03-28T19:49:13.160Z,1.17
2023-03-28T19:52:01.396Z,1.00
2023-03-28T19:54:49.336Z,1.40
2023-03-28T19:57:37.947Z,1.17
2023-03-28T20:00:27.386Z,1.05
2023-03-28T20:03:21.107Z,1.30
2023-03-28T20:06:12.655Z,1.30
2023-03-28T20:09:02.491Z,1.30
2023-03-28T20:11:51.370Z,1.42
2023-03-28T20:14:39.135Z,1.17
2023-03-28T20:17:28.204Z,0.88
2023-03-28T20:20:15.993Z,1.15
2023-03-28T20:23:04.228Z,1.15
2023-03-28T20:25:53.845Z,1.23
2023-03-28T20:28:41.809Z,1.27
2023-03-28T20:31:29.558Z,1.13
2023-03-28T20:34:18.902Z,1.23
2023-03-28T20:37:06.753Z,1.00
2023-03-28T20:39:55.377Z,1.20
2023-03-28T20:42:52.859Z,1.20
2023-03-28T20:45:46.197Z,1.50
2023-03-28T20:48:36.953Z,1.35
2023-03-28T20:51:26.120Z,1.10
2023-03-28T20:54:14.041Z,1.17
2023-03-28T20:57:01.149Z,1.25
2023-03-28T20:59:48.615Z,1.08
2023-03-28T21:02:36.509Z,0.90
2023-03-28T21:05:25.107Z,1.20
2023-03-28T21:08:14.420Z,1.27
2023-03-28T21:11:03.892Z,0.88
2023-03-28T21:13:51.211Z,1.23
2023-03-28T21:16:38.620Z,1.13
2023-03-28T21:19:26.270Z,0.77
2023-03-28T21:22:13.425Z,1.20
2023-03-28T21:25:05.428Z,1.00
2023-03-28T21:27:52.870Z,0.90
2023-03-28T21:30:40.368Z,0.95
2023-03-28T21:33:28.925Z,0.95
2023-03-28T21:36:17.811Z,1.65
2023-03-28T21:39:05.206Z,0.95
2023-03-28T21:41:52.468Z,1.20
2023-03-28T21:44:39.557Z,0.90
2023-03-28T21:47:26.849Z,1.00
2023-03-28T21:50:15.313Z,1.85
2023-03-28T21:53:02.364Z,1.00
2023-03-28T21:55:51.214Z,1.10
2023-03-28T21:58:38.379Z,1.50
2023-03-28T22:01:25.632Z,0.88
2023-03-28T22:04:12.721Z,1.10
2023-03-28T22:06:59.833Z,1.17
2023-03-28T22:09:51.096Z,0.95
2023-03-28T22:12:38.169Z,1.35
2023-03-28T22:15:26.048Z,1.20
2023-03-28T22:18:13.422Z,1.52
2023-03-28T22:21:02.748Z,1.40
2023-03-28T22:23:50.027Z,1.30
2023-03-28T22:26:37.103Z,1.40
2023-03-28T22:29:24.172Z,1.20
2023-03-28T22:32:11.489Z,1.30
2023-03-28T22:34:58.582Z,1.30
2023-03-28T22:37:45.668Z,1.85
2023-03-28T22:40:33.049Z,1.40
2023-03-28T22:43:20.094Z,1.30
2023-03-28T22:46:07.284Z,1.33
2023-03-28T22:48:58.069Z,1.40
2023-03-28T22:51:48.366Z,1.52
2023-03-28T22:54:37.073Z,1.15
2023-03-28T22:57:24.268Z,1.20
2023-03-28T23:03:33.455Z,3.13
2023-03-28T23:06:20.669Z,3.00
2023-03-28T23:09:08.668Z,3.42
2023-03-28T23:11:56.047Z,2.33
2023-03-28T23:14:43.243Z,1.50
2023-03-28T23:17:30.342Z,2.05
2023-03-28T23:20:19.249Z,1.30
2023-03-28T23:23:06.912Z,1.73
2023-03-28T23:25:53.972Z,1.55
2023-03-28T23:28:41.164Z,1.50
2023-03-28T23:31:28.525Z,1.48
2023-03-28T23:34:16.472Z,1.30
2023-03-28T23:37:04.189Z,1.60
2023-03-28T23:39:51.476Z,1.13
2023-03-28T23:42:38.533Z,1.20
2023-03-28T23:45:25.942Z,1.55
2023-03-28T23:48:13.313Z,1.42
2023-03-28T23:51:04.328Z,1.40
2023-03-28T23:53:51.737Z,1.20
2023-03-28T23:56:39.071Z,1.95
2023-03-28T23:59:26.285Z,1.80
